createdAt,value
2019-03-20T00:01:54.631Z,7.40
2019-03-20T00:04:21.260Z,7.77
2019-03-20T00:06:47.912Z,7.23
2019-03-20T00:09:14.945Z,7.97
2019-03-20T00:11:41.571Z,6.63
2019-03-20T00:14:08.609Z,7.50
2019-03-20T00:16:35.207Z,7.03
2019-03-20T00:19:02.087Z,7.50
2019-03-20T00:21:28.662Z,7.40
2019-03-20T00:23:55.393Z,7.00
2019-03-20T00:26:22.003Z,6.70
2019-03-20T00:28:48.955Z,6.00
2019-03-20T00:31:15.535Z,7.07
2019-03-20T00:33:42.184Z,7.43
2019-03-20T00:36:08.766Z,7.33
2019-03-20T00:38:35.930Z,6.60
2019-03-20T00:41:02.612Z,6.07
2019-03-20T00:43:29.273Z,7.53
2019-03-20T00:45:55.844Z,6.60
2019-03-20T00:48:22.409Z,6.27
2019-03-20T00:50:48.980Z,6.73
2019-03-20T00:53:15.573Z,6.90
2019-03-20T00:55:42.581Z,6.93
2019-03-20T00:58:09.200Z,5.83
2019-03-20T01:00:36.190Z,6.53
2019-03-20T01:03:02.777Z,6.30
2019-03-20T01:05:29.384Z,6.53
2019-03-20T01:07:55.964Z,6.80
2019-03-20T01:10:22.959Z,6.07
2019-03-20T01:12:49.540Z,5.77
2019-03-20T01:15:16.224Z,5.83
2019-03-20T01:17:42.818Z,6.37
2019-03-20T01:20:09.397Z,6.20
2019-03-20T01:22:36.002Z,5.50
2019-03-20T01:25:02.689Z,6.50
2019-03-20T01:27:29.812Z,6.53
2019-03-20T01:29:56.454Z,5.70
2019-03-20T01:32:23.558Z,5.63
2019-03-20T01:34:50.250Z,5.83
2019-03-20T01:37:17.122Z,5.80
2019-03-20T01:39:43.822Z,6.10
2019-03-20T01:42:10.433Z,5.50
2019-03-20T01:44:37.117Z,5.63
2019-03-20T01:47:03.734Z,5.43
2019-03-20T01:49:30.303Z,5.60
2019-03-20T01:51:58.024Z,5.37
2019-03-20T01:54:24.663Z,5.77
2019-03-20T01:56:51.650Z,5.63
2019-03-20T01:59:18.243Z,5.10
2019-03-20T02:01:45.167Z,5.13
2019-03-20T02:04:11.853Z,6.10
2019-03-20T02:06:38.414Z,5.63
2019-03-20T02:09:04.955Z,5.10
2019-03-20T02:11:31.507Z,5.00
2019-03-20T02:13:58.461Z,5.13
2019-03-20T02:16:25.015Z,5.37
2019-03-20T02:18:51.649Z,5.30
2019-03-20T02:21:19.907Z,5.30
2019-03-20T02:23:46.504Z,5.40
2019-03-20T02:26:13.088Z,6.17
2019-03-20T02:28:39.689Z,5.67
2019-03-20T02:33:47.727Z,5.30
2019-03-20T02:36:14.394Z,5.17
2019-03-20T02:38:41.089Z,5.03
2019-03-20T02:41:07.680Z,4.70
2019-03-20T02:43:34.300Z,4.90
2019-03-20T02:46:01.971Z,5.53
2019-03-20T02:48:30.490Z,4.80
2019-03-20T02:50:57.049Z,5.17
2019-03-20T02:53:24.059Z,5.13
2019-03-20T02:55:50.664Z,4.90
2019-03-20T02:58:17.567Z,4.83
2019-03-20T03:00:44.149Z,5.63
2019-03-20T03:03:10.703Z,4.77
2019-03-20T03:05:37.406Z,4.33
2019-03-20T03:08:03.975Z,4.70
2019-03-20T03:10:31.010Z,4.63
2019-03-20T03:12:57.944Z,4.70
2019-03-20T03:15:24.542Z,5.17
2019-03-20T03:17:52.305Z,5.30
2019-03-20T03:20:18.933Z,4.87
2019-03-20T03:22:45.573Z,5.10
2019-03-20T03:25:12.876Z,4.37
2019-03-20T03:27:39.717Z,5.13
2019-03-20T03:30:06.571Z,4.73
2019-03-20T03:32:33.621Z,4.47
2019-03-20T03:35:00.841Z,5.13
2019-03-20T03:37:27.807Z,4.57
2019-03-20T03:39:54.363Z,4.80
2019-03-20T03:42:20.958Z,4.73
2019-03-20T03:44:47.606Z,4.70
2019-03-20T03:47:14.723Z,4.63
2019-03-20T03:49:41.320Z,4.47
2019-03-20T03:52:07.917Z,4.77
2019-03-20T03:54:34.671Z,4.93
2019-03-20T03:57:02.336Z,4.70
2019-03-20T03:59:29.303Z,4.57
2019-03-20T04:01:55.936Z,4.93
2019-03-20T04:04:22.441Z,4.40
2019-03-20T04:06:49.103Z,5.00
2019-03-20T04:09:15.973Z,5.33
2019-03-20T04:11:42.682Z,4.57
2019-03-20T04:14:11.187Z,4.13
2019-03-20T04:16:37.786Z,5.33
2019-03-20T04:19:04.702Z,4.80
2019-03-20T04:21:31.376Z,4.87
2019-03-20T04:23:58.217Z,5.20
2019-03-20T04:26:24.918Z,4.60
2019-03-20T04:28:51.603Z,5.30
2019-03-20T04:31:18.212Z,4.90
2019-03-20T04:33:45.238Z,5.40
2019-03-20T04:36:11.951Z,5.60
2019-03-20T04:38:38.702Z,4.13
2019-03-20T04:41:05.441Z,5.60
2019-03-20T04:43:32.030Z,4.87
2019-03-20T04:46:00.412Z,5.40
2019-03-20T04:48:27.025Z,4.67
2019-03-20T04:50:53.729Z,5.53
2019-03-20T04:53:20.243Z,5.33
2019-03-20T04:55:46.814Z,5.00
2019-03-20T04:58:13.402Z,5.57
2019-03-20T05:00:40.093Z,4.90
2019-03-20T05:03:06.829Z,4.87
2019-03-20T05:05:33.431Z,5.53
2019-03-20T05:07:59.997Z,5.23
2019-03-20T05:10:27.261Z,4.83
2019-03-20T05:12:53.879Z,5.70
2019-03-20T05:15:20.502Z,4.70
2019-03-20T05:17:47.113Z,6.00
2019-03-20T05:20:13.678Z,5.80
2019-03-20T05:22:40.284Z,4.83
2019-03-20T05:25:06.898Z,6.00
2019-03-20T05:27:33.712Z,5.97
2019-03-20T05:30:02.297Z,5.40
2019-03-20T05:32:28.704Z,5.70
2019-03-20T05:34:55.289Z,6.10
2019-03-20T05:37:22.107Z,5.80
2019-03-20T05:39:48.749Z,5.57
2019-03-20T05:42:15.486Z,5.57
2019-03-20T05:44:42.795Z,6.20
2019-03-20T05:47:09.726Z,5.33
2019-03-20T05:49:36.419Z,5.63
2019-03-20T05:52:03.245Z,5.30
2019-03-20T05:54:29.869Z,5.40
2019-03-20T05:56:58.098Z,5.57
2019-03-20T05:59:24.585Z,5.73
2019-03-20T06:01:51.249Z,5.67
2019-03-20T06:04:18.977Z,5.23
2019-03-20T06:06:45.618Z,5.80
2019-03-20T06:09:12.242Z,6.07
2019-03-20T06:11:38.797Z,5.37
2019-03-20T06:14:05.484Z,5.20
2019-03-20T06:16:32.658Z,5.97
2019-03-20T06:18:59.176Z,5.63
2019-03-20T06:21:25.872Z,5.63
2019-03-20T06:23:52.520Z,5.67
2019-03-20T06:26:19.159Z,5.37
2019-03-20T06:31:20.404Z,6.17
2019-03-20T06:33:47.073Z,6.23
2019-03-20T06:36:13.770Z,6.70
2019-03-20T06:38:40.376Z,5.40
2019-03-20T06:41:08.482Z,5.57
2019-03-20T06:43:35.192Z,5.47
2019-03-20T06:46:03.926Z,6.10
2019-03-20T06:48:30.542Z,5.80
2019-03-20T06:50:57.407Z,5.97
2019-03-20T06:53:25.061Z,6.67
2019-03-20T06:55:51.670Z,5.43
2019-03-20T06:58:18.545Z,5.33
2019-03-20T07:00:45.170Z,6.30
2019-03-20T07:03:12.129Z,5.60
2019-03-20T07:05:38.901Z,5.33
2019-03-20T07:08:05.501Z,6.13
2019-03-20T07:10:32.523Z,5.63
2019-03-20T07:13:01.361Z,5.90
2019-03-20T07:15:28.092Z,5.57
2019-03-20T07:17:55.436Z,5.60
2019-03-20T07:20:22.294Z,6.07
2019-03-20T07:22:48.902Z,6.03
2019-03-20T07:25:15.677Z,6.40
2019-03-20T07:27:43.987Z,5.97
2019-03-20T07:30:10.666Z,5.10
2019-03-20T07:32:37.328Z,5.40
2019-03-20T07:35:03.965Z,5.50
2019-03-20T07:37:33.595Z,5.63
2019-03-20T07:39:59.687Z,5.90
2019-03-20T07:42:26.281Z,5.77
2019-03-20T07:44:52.961Z,5.33
2019-03-20T07:47:19.645Z,5.70
2019-03-20T07:49:46.247Z,5.67
2019-03-20T07:52:17.891Z,5.63
2019-03-20T07:54:45.842Z,5.80
2019-03-20T07:57:12.622Z,5.70
2019-03-20T07:59:39.309Z,5.37
2019-03-20T08:02:05.946Z,5.90
2019-03-20T08:04:32.582Z,5.07
2019-03-20T08:06:59.479Z,5.60
2019-03-20T08:09:26.217Z,5.77
2019-03-20T08:11:52.757Z,5.90
2019-03-20T08:14:19.347Z,6.10
2019-03-20T08:16:46.133Z,5.80
2019-03-20T08:19:12.707Z,6.17
2019-03-20T08:21:39.417Z,5.30
2019-03-20T08:24:06.178Z,5.27
2019-03-20T08:26:32.927Z,5.30
2019-03-20T08:28:59.592Z,5.50
2019-03-20T08:31:26.244Z,5.63
2019-03-20T08:33:53.057Z,5.57
2019-03-20T08:36:19.670Z,4.77
2019-03-20T08:38:46.294Z,5.80
2019-03-20T08:41:12.942Z,5.17
2019-03-20T08:43:39.858Z,5.67
2019-03-20T08:46:06.708Z,5.20
2019-03-20T08:48:33.520Z,4.87
2019-03-20T08:51:00.217Z,4.90
2019-03-20T08:53:26.831Z,5.33
2019-03-20T08:55:53.400Z,5.10
2019-03-20T08:58:20.513Z,4.90
2019-03-20T09:00:47.203Z,4.90
2019-03-20T09:03:15.148Z,5.13
2019-03-20T09:05:41.827Z,4.63
2019-03-20T09:08:08.883Z,5.60
2019-03-20T09:10:35.682Z,5.07
2019-03-20T09:13:02.668Z,5.50
2019-03-20T09:15:29.425Z,5.50
2019-03-20T09:17:56.307Z,5.43
2019-03-20T09:20:23.243Z,5.27
2019-03-20T09:22:50.456Z,5.07
2019-03-20T09:25:17.160Z,4.93
2019-03-20T09:27:43.853Z,5.40
2019-03-20T09:30:11.178Z,5.43
2019-03-20T09:32:38.283Z,5.53
2019-03-20T09:35:06.927Z,5.33
2019-03-20T09:37:33.836Z,5.33
2019-03-20T09:40:00.886Z,6.17
2019-03-20T09:42:27.526Z,6.47
2019-03-20T09:44:54.132Z,6.37
2019-03-20T09:47:21.224Z,6.07
2019-03-20T09:49:47.967Z,5.63
2019-03-20T09:52:14.592Z,5.80
2019-03-20T09:54:41.193Z,6.00
2019-03-20T09:57:08.320Z,5.53
2019-03-20T09:59:36.322Z,5.30
2019-03-20T10:02:03.042Z,5.53
2019-03-20T10:04:29.933Z,5.63
2019-03-20T10:06:56.542Z,5.77
2019-03-20T10:09:23.283Z,5.73
2019-03-20T10:11:49.970Z,5.27
2019-03-20T10:14:16.712Z,5.37
2019-03-20T10:16:43.355Z,5.27
2019-03-20T10:19:10.129Z,5.37
2019-03-20T10:21:37.162Z,5.00
2019-03-20T10:24:03.740Z,4.87
2019-03-20T10:26:30.467Z,5.67
2019-03-20T10:28:57.250Z,5.23
2019-03-20T10:31:25.216Z,4.80
2019-03-20T10:33:51.934Z,4.97
2019-03-20T10:36:18.664Z,5.70
2019-03-20T10:38:45.521Z,5.47
2019-03-20T10:41:14.615Z,4.97
2019-03-20T10:43:41.609Z,5.43
2019-03-20T10:46:08.287Z,5.47
2019-03-20T10:48:34.897Z,5.30
2019-03-20T10:51:01.589Z,5.20
2019-03-20T10:53:28.310Z,5.30
2019-03-20T10:55:55.025Z,4.90
2019-03-20T10:58:22.018Z,5.50
2019-03-20T11:00:48.721Z,4.57
2019-03-20T11:03:15.329Z,5.33
2019-03-20T11:05:42.087Z,5.57
2019-03-20T11:08:08.653Z,4.90
2019-03-20T11:10:35.359Z,5.03
2019-03-20T11:13:02.358Z,4.97
2019-03-20T11:15:29.803Z,4.73
2019-03-20T11:17:56.596Z,4.87
2019-03-20T11:20:23.190Z,4.63
2019-03-20T11:22:50.086Z,4.83
2019-03-20T11:25:16.711Z,4.97
2019-03-20T11:27:45.455Z,5.13
2019-03-20T11:30:12.277Z,4.63
2019-03-20T11:32:40.054Z,5.17
2019-03-20T11:35:07.003Z,4.33
2019-03-20T11:37:34.766Z,5.30
2019-03-20T11:40:01.375Z,4.07
2019-03-20T11:42:28.342Z,4.97
2019-03-20T11:44:54.982Z,5.23
2019-03-20T11:47:21.593Z,4.30
2019-03-20T11:49:48.165Z,5.20
2019-03-20T11:52:15.078Z,5.07
2019-03-20T11:54:41.715Z,5.03
2019-03-20T11:57:08.323Z,5.43
2019-03-20T11:59:34.986Z,4.70
2019-03-20T12:02:01.607Z,4.53
2019-03-20T12:04:28.315Z,5.20
2019-03-20T12:06:55.006Z,4.83
2019-03-20T12:09:21.550Z,5.30
2019-03-20T12:11:48.500Z,5.33
2019-03-20T12:14:15.101Z,5.53
2019-03-20T12:16:41.770Z,5.47
2019-03-20T12:19:08.722Z,5.57
2019-03-20T12:21:35.973Z,4.87
2019-03-20T12:24:02.539Z,6.20
2019-03-20T12:26:30.752Z,5.70
2019-03-20T12:28:59.147Z,5.47
2019-03-20T12:31:25.912Z,6.03
2019-03-20T12:33:52.993Z,5.77
2019-03-20T12:36:19.657Z,5.43
2019-03-20T12:38:46.267Z,5.50
2019-03-20T12:41:12.892Z,6.17
2019-03-20T12:43:39.708Z,6.30
2019-03-20T12:46:06.462Z,5.97
2019-03-20T12:48:33.200Z,5.67
2019-03-20T12:50:59.725Z,6.00
2019-03-20T12:53:27.461Z,6.00
2019-03-20T12:55:54.348Z,6.73
2019-03-20T12:58:21.214Z,6.63
2019-03-20T13:03:16.212Z,5.53
2019-03-20T13:05:42.921Z,6.20
2019-03-20T13:08:09.610Z,6.17
2019-03-20T13:10:36.523Z,6.33
2019-03-20T13:13:04.423Z,6.43
2019-03-20T13:15:33.314Z,6.17
2019-03-20T13:17:59.360Z,5.97
2019-03-20T13:20:26.284Z,6.43
2019-03-20T13:22:53.195Z,5.47
2019-03-20T13:25:19.841Z,6.53
2019-03-20T13:27:46.395Z,5.93
2019-03-20T13:30:20.056Z,6.00
2019-03-20T13:32:43.380Z,6.03
2019-03-20T13:35:10.116Z,6.80
2019-03-20T13:37:36.850Z,6.23
2019-03-20T13:40:13.616Z,6.53
2019-03-20T13:42:32.323Z,6.40
2019-03-20T13:45:00.386Z,5.97
2019-03-20T13:47:27.126Z,6.10
2019-03-20T13:49:53.737Z,6.00
2019-03-20T13:52:20.455Z,5.67
2019-03-20T13:54:47.442Z,5.73
2019-03-20T13:57:14.048Z,6.43
2019-03-20T13:59:40.818Z,6.40
2019-03-20T14:02:07.543Z,6.23
2019-03-20T14:04:34.177Z,6.13
2019-03-20T14:07:00.753Z,6.07
2019-03-20T14:09:27.791Z,5.60
2019-03-20T14:11:54.471Z,5.73
2019-03-20T14:14:21.242Z,5.60
2019-03-20T14:16:47.843Z,6.73
2019-03-20T14:19:14.583Z,5.50
2019-03-20T14:21:41.294Z,5.87
2019-03-20T14:24:08.137Z,5.60
2019-03-20T14:26:34.932Z,6.17
2019-03-20T14:29:01.652Z,6.67
2019-03-20T14:31:28.491Z,5.40
2019-03-20T14:33:55.616Z,5.20
2019-03-20T14:36:22.329Z,5.93
2019-03-20T14:38:50.315Z,5.53
2019-03-20T14:41:21.557Z,5.63
2019-03-20T14:43:45.537Z,6.30
2019-03-20T14:46:12.166Z,5.70
2019-03-20T14:48:38.801Z,5.80
2019-03-20T14:51:05.490Z,5.77
2019-03-20T14:53:32.074Z,5.77
2019-03-20T14:55:58.741Z,5.13
2019-03-20T14:58:25.434Z,6.27
2019-03-20T15:00:52.130Z,5.37
2019-03-20T15:03:18.746Z,5.50
2019-03-20T15:05:45.412Z,5.97
2019-03-20T15:08:12.186Z,5.50
2019-03-20T15:10:45.994Z,5.60
2019-03-20T15:13:08.432Z,5.07
2019-03-20T15:15:35.160Z,5.47
2019-03-20T15:18:01.763Z,5.40
2019-03-20T15:20:28.329Z,5.40
2019-03-20T15:22:54.945Z,5.60
2019-03-20T15:25:21.771Z,5.40
2019-03-20T15:27:49.533Z,5.73
2019-03-20T15:30:16.134Z,5.37
2019-03-20T15:32:43.131Z,5.37
2019-03-20T15:35:09.842Z,5.23
2019-03-20T15:37:36.510Z,4.77
2019-03-20T15:40:03.105Z,5.80
2019-03-20T15:42:29.728Z,5.30
2019-03-20T15:44:56.372Z,4.93
2019-03-20T15:47:23.104Z,4.70
2019-03-20T15:49:49.798Z,5.63
2019-03-20T15:52:16.802Z,5.50
2019-03-20T15:54:43.543Z,4.87
2019-03-20T15:57:10.334Z,4.73
2019-03-20T15:59:37.310Z,5.13
2019-03-20T16:02:03.962Z,5.20
2019-03-20T16:04:32.136Z,5.00
2019-03-20T16:06:58.782Z,4.83
2019-03-20T16:09:25.376Z,4.27
2019-03-20T16:11:52.074Z,4.30
2019-03-20T16:14:18.764Z,4.63
2019-03-20T16:16:45.496Z,5.20
2019-03-20T16:19:12.268Z,4.73
2019-03-20T16:21:40.710Z,4.40
2019-03-20T16:24:07.351Z,4.90
2019-03-20T16:26:34.093Z,4.50
2019-03-20T16:29:00.953Z,4.57
2019-03-20T16:31:28.067Z,4.57
2019-03-20T16:33:57.312Z,4.37
2019-03-20T16:36:23.927Z,4.93
2019-03-20T16:38:50.594Z,4.43
2019-03-20T16:41:17.353Z,4.93
2019-03-20T16:43:43.953Z,4.10
2019-03-20T16:46:10.514Z,4.90
2019-03-20T16:48:37.110Z,4.17
2019-03-20T16:51:03.910Z,4.80
2019-03-20T16:53:30.497Z,4.27
2019-03-20T16:55:57.061Z,4.43
2019-03-20T16:58:23.735Z,4.50
2019-03-20T17:00:50.365Z,4.43
2019-03-20T17:03:16.931Z,4.53
2019-03-20T17:05:43.611Z,4.37
2019-03-20T17:08:10.250Z,4.20
2019-03-20T17:10:36.880Z,4.20
2019-03-20T17:13:03.481Z,4.83
2019-03-20T17:15:30.677Z,4.57
2019-03-20T17:17:59.328Z,4.60
2019-03-20T17:20:26.452Z,4.20
2019-03-20T17:22:53.109Z,4.57
2019-03-20T17:25:19.659Z,4.80
2019-03-20T17:27:46.257Z,3.77
2019-03-20T17:30:13.310Z,3.77
2019-03-20T17:32:40.009Z,3.87
2019-03-20T17:35:06.858Z,3.73
2019-03-20T17:37:35.283Z,4.60
2019-03-20T17:40:02.200Z,4.43
2019-03-20T17:42:28.657Z,4.07
2019-03-20T17:44:55.233Z,4.20
2019-03-20T17:47:21.779Z,4.77
2019-03-20T17:49:48.377Z,4.10
2019-03-20T17:52:14.954Z,4.10
2019-03-20T17:54:41.540Z,4.30
2019-03-20T17:57:08.300Z,4.30
2019-03-20T17:59:34.975Z,4.30
2019-03-20T18:02:01.560Z,4.17
2019-03-20T18:04:28.465Z,4.13
2019-03-20T18:06:55.779Z,3.80
2019-03-20T18:09:25.501Z,3.80
2019-03-20T18:11:52.932Z,4.03
2019-03-20T18:14:21.229Z,4.30
2019-03-20T18:16:50.780Z,3.87
2019-03-20T18:19:18.761Z,3.90
2019-03-20T18:22:04.165Z,3.73
2019-03-20T18:24:31.391Z,3.57
2019-03-20T18:26:58.114Z,3.97
2019-03-20T18:29:24.985Z,3.70
2019-03-20T18:31:52.770Z,3.60
2019-03-20T18:34:22.337Z,4.27
2019-03-20T18:36:49.082Z,3.77
2019-03-20T18:39:15.647Z,3.70
2019-03-20T18:41:44.105Z,3.90
2019-03-20T18:44:11.426Z,3.60
2019-03-20T18:46:38.091Z,3.33
2019-03-20T18:49:04.734Z,3.90
2019-03-20T18:51:31.395Z,3.67
2019-03-20T18:53:58.087Z,3.93
2019-03-20T18:56:24.742Z,3.47
2019-03-20T18:58:51.397Z,3.90
2019-03-20T19:01:17.981Z,3.63
2019-03-20T19:03:44.610Z,3.60
2019-03-20T19:06:11.179Z,3.80
2019-03-20T19:08:37.895Z,4.37
2019-03-20T19:11:05.738Z,4.10
2019-03-20T19:13:32.345Z,4.43
2019-03-20T19:15:59.174Z,4.07
2019-03-20T19:18:25.848Z,4.57
2019-03-20T19:20:52.801Z,3.90
2019-03-20T19:23:19.508Z,4.20
2019-03-20T19:25:46.554Z,3.90
2019-03-20T19:28:13.128Z,4.20
2019-03-20T19:30:39.684Z,4.10
2019-03-20T19:33:06.279Z,4.10
2019-03-20T19:35:32.881Z,4.10
2019-03-20T19:37:59.808Z,4.00
2019-03-20T19:40:26.483Z,4.77
2019-03-20T19:42:53.797Z,3.80
2019-03-20T19:45:20.693Z,4.67
2019-03-20T19:47:47.395Z,4.00
2019-03-20T19:50:14.039Z,4.53
2019-03-20T19:53:05.056Z,4.63
2019-03-20T19:55:52.431Z,4.97
2019-03-20T19:58:30.695Z,4.87
2019-03-20T20:01:01.069Z,4.50
2019-03-20T20:03:30.041Z,4.97
2019-03-20T20:06:00.777Z,4.87
2019-03-20T20:08:27.732Z,4.83
2019-03-20T20:10:54.421Z,4.93
2019-03-20T20:13:21.216Z,5.00
2019-03-20T20:15:47.776Z,4.77
2019-03-20T20:18:14.605Z,4.50
2019-03-20T20:20:41.244Z,3.97
2019-03-20T20:23:07.849Z,3.83
2019-03-20T20:25:34.436Z,4.00
2019-03-20T20:28:01.034Z,4.73
2019-03-20T20:30:27.602Z,4.43
2019-03-20T20:32:54.316Z,4.43
2019-03-20T20:35:20.900Z,4.57
2019-03-20T20:37:47.560Z,4.10
2019-03-20T20:40:14.162Z,4.53
2019-03-20T20:42:43.151Z,4.60
2019-03-20T20:45:09.132Z,5.60
2019-03-20T20:47:35.781Z,4.90
2019-03-20T20:50:02.584Z,4.70
2019-03-20T20:52:29.884Z,5.17
2019-03-20T20:54:56.495Z,4.63
2019-03-20T20:57:23.070Z,5.53
2019-03-20T20:59:49.678Z,5.20
2019-03-20T21:02:16.813Z,4.37
2019-03-20T21:04:43.466Z,4.73
2019-03-20T21:07:10.056Z,4.00
2019-03-20T21:09:36.819Z,4.80
2019-03-20T21:12:03.621Z,4.60
2019-03-20T21:14:30.639Z,4.40
2019-03-20T21:16:58.976Z,5.33
2019-03-20T21:19:28.957Z,5.33
2019-03-20T21:21:57.754Z,3.87
2019-03-20T21:24:35.802Z,5.73
2019-03-20T21:27:05.097Z,4.33
2019-03-20T21:29:31.968Z,5.77
2019-03-20T21:31:58.531Z,5.70
2019-03-20T21:34:25.126Z,6.17
2019-03-20T21:36:51.737Z,5.50
2019-03-20T21:39:18.457Z,5.83
2019-03-20T21:41:45.229Z,6.93
2019-03-20T21:44:11.977Z,5.90
2019-03-20T21:46:38.570Z,5.30
2019-03-20T21:49:05.193Z,5.60
2019-03-20T21:51:31.758Z,5.33
2019-03-20T21:53:58.475Z,5.60
2019-03-20T21:56:25.085Z,5.53
2019-03-20T21:58:51.653Z,5.40
2019-03-20T22:01:18.443Z,5.00
2019-03-20T22:03:45.044Z,4.70
2019-03-20T22:06:11.653Z,5.80
2019-03-20T22:08:38.594Z,5.10
2019-03-20T22:11:05.198Z,5.63
2019-03-20T22:13:31.783Z,5.67
2019-03-20T22:15:58.346Z,6.00
2019-03-20T22:18:24.940Z,5.43
2019-03-20T22:20:51.552Z,5.40
2019-03-20T22:23:18.458Z,4.97
2019-03-20T22:25:45.059Z,5.70
2019-03-20T22:28:11.652Z,5.30
2019-03-20T22:30:38.282Z,5.67
2019-03-20T22:33:04.939Z,5.20
2019-03-20T22:35:31.525Z,5.50
2019-03-20T22:37:58.137Z,5.87
2019-03-20T22:40:24.818Z,5.67
2019-03-20T22:42:51.537Z,5.90
2019-03-20T22:45:18.233Z,5.40
2019-03-20T22:47:44.977Z,5.90
2019-03-20T22:50:11.653Z,6.10
2019-03-20T22:52:38.595Z,6.03
2019-03-20T22:55:05.188Z,5.73
2019-03-20T22:57:32.010Z,5.97
2019-03-20T22:59:58.692Z,5.93
2019-03-20T23:02:25.370Z,6.63
2019-03-20T23:04:52.076Z,6.23
2019-03-20T23:07:18.762Z,6.63
2019-03-20T23:09:45.580Z,6.80
2019-03-20T23:12:12.284Z,7.43
2019-03-20T23:14:39.012Z,7.03
2019-03-20T23:17:05.594Z,6.83
2019-03-20T23:19:32.881Z,7.40
2019-03-20T23:21:59.473Z,6.37
2019-03-20T23:24:26.126Z,7.07
2019-03-20T23:26:52.701Z,7.17
2019-03-20T23:29:19.448Z,7.23
2019-03-20T23:31:46.207Z,7.67
2019-03-20T23:34:13.169Z,7.70
2019-03-20T23:36:39.790Z,7.03
2019-03-20T23:39:06.726Z,7.20
2019-03-20T23:41:33.391Z,7.63
2019-03-20T23:44:00.010Z,7.93
2019-03-20T23:46:26.741Z,6.80
2019-03-20T23:48:53.315Z,7.50
2019-03-20T23:51:19.941Z,7.83
2019-03-20T23:53:46.577Z,6.83
2019-03-20T23:56:13.207Z,7.70
2019-03-20T23:58:39.799Z,7.33
